Time;durP1;ratioP1;P1;durP2;ratioP2;P2;SDS_P1;SDS_P2;PMS_P1;PMS_P2;Temp;Humidity;BMP_temperature;BMP_pressure;BME280_temperature;BME280_humidity;BME280_pressure;Samples;Min_cycle;Max_cycle;Signal;HPM_P1;HPM_P2
2022/12/03 00:00:51;;;;;;;14.70;8.05;;;4.20;99.90;;;;;;5059864;28;20311;-73
2022/12/03 00:03:16;;;;;;;16.30;9.40;;;4.20;99.90;;;;;;5064808;28;20101;-72
2022/12/03 00:05:42;;;;;;;12.30;7.47;;;4.30;99.90;;;;;;5064129;28;20045;-73
2022/12/03 00:08:08;;;;;;;12.27;7.72;;;4.30;99.90;;;;;;5060074;28;20051;-73
2022/12/03 00:10:33;;;;;;;13.03;7.93;;;4.30;99.90;;;;;;5058850;28;20132;-73
2022/12/03 00:12:59;;;;;;;14.75;9.23;;;4.30;99.90;;;;;;5050246;28;20404;-72
2022/12/03 00:15:25;;;;;;;12.38;8.10;;;4.40;99.90;;;;;;5050051;28;20095;-73
2022/12/03 00:17:50;;;;;;;12.43;9.27;;;4.40;99.90;;;;;;5062357;28;20055;-73
2022/12/03 00:20:22;;;;;;;16.63;9.57;;;4.50;99.90;;;;;;5052379;28;20048;-73
2022/12/03 00:22:48;;;;;;;12.95;8.88;;;4.50;99.90;;;;;;5057280;28;20049;-73
2022/12/03 00:25:14;;;;;;;12.18;8.60;;;4.50;99.90;;;;;;5060315;28;20456;-72
2022/12/03 00:27:39;;;;;;;13.35;9.02;;;4.50;99.90;;;;;;5056645;28;20120;-72
2022/12/03 00:30:06;;;;;;;13.93;8.93;;;4.60;99.90;;;;;;5060236;28;20105;-72
2022/12/03 00:32:32;;;;;;;10.07;7.47;;;4.60;99.90;;;;;;5055204;28;20111;-72
2022/12/03 00:34:57;;;;;;;10.18;7.05;;;4.60;99.90;;;;;;5050688;28;20041;-73
2022/12/03 00:37:23;;;;;;;10.82;7.18;;;4.60;99.90;;;;;;5041857;28;20040;-73
2022/12/03 00:39:49;;;;;;;10.73;7.55;;;4.60;99.90;;;;;;5050484;28;20500;-73
2022/12/03 00:42:14;;;;;;;11.48;7.82;;;4.60;99.90;;;;;;5066706;28;20052;-73
2022/12/03 00:44:40;;;;;;;11.68;7.15;;;4.60;99.90;;;;;;5067326;28;20048;-73
2022/12/03 00:47:06;;;;;;;10.95;7.70;;;4.60;99.90;;;;;;5083003;28;20505;-73
2022/12/03 00:49:32;;;;;;;13.15;8.40;;;4.60;99.90;;;;;;5068298;28;20115;-73
2022/12/03 00:51:57;;;;;;;10.88;7.40;;;4.60;99.90;;;;;;5051111;28;20074;-73
2022/12/03 00:54:23;;;;;;;11.05;7.43;;;4.60;99.90;;;;;;5049711;28;20071;-73
2022/12/03 00:56:48;;;;;;;11.57;6.90;;;4.60;99.90;;;;;;5052593;28;20044;-74
2022/12/03 00:59:14;;;;;;;10.32;7.53;;;4.60;99.90;;;;;;5051649;28;20400;-73
2022/12/03 01:01:40;;;;;;;10.43;6.80;;;4.60;99.90;;;;;;5068204;28;20082;-73
2022/12/03 01:04:05;;;;;;;10.20;6.85;;;4.60;99.90;;;;;;5050042;28;20045;-73
2022/12/03 01:06:31;;;;;;;9.13;6.45;;;4.60;99.90;;;;;;5049721;28;20056;-73
2022/12/03 01:08:57;;;;;;;9.77;6.07;;;4.60;99.90;;;;;;5050342;28;20041;-73
2022/12/03 01:11:37;;;;;;;11.00;7.15;;;4.60;99.90;;;;;;5050066;28;20474;-74
2022/12/03 01:14:09;;;;;;;11.45;7.75;;;4.60;99.90;;;;;;5059636;28;20053;-73
2022/12/03 01:16:35;;;;;;;11.85;7.55;;;4.60;99.90;;;;;;5052072;28;20056;-73
2022/12/03 01:19:02;;;;;;;9.88;6.60;;;4.60;99.90;;;;;;5047254;28;20124;-74
2022/12/03 01:21:27;;;;;;;10.10;6.78;;;4.70;99.90;;;;;;5055390;28;20149;-74
2022/12/03 01:23:53;;;;;;;8.48;6.00;;;4.60;99.90;;;;;;5050004;28;20088;-73
2022/12/03 01:26:19;;;;;;;8.82;6.35;;;4.60;99.90;;;;;;5069635;28;20044;-73
2022/12/03 01:28:45;;;;;;;7.00;4.78;;;4.70;99.90;;;;;;5068468;28;20127;-74
2022/12/03 01:33:55;;;;;;;7.30;4.97;;;4.60;99.90;;;;;;5049217;28;20063;-74
2022/12/03 01:36:20;;;;;;;7.75;5.75;;;4.60;99.90;;;;;;5051848;28;20041;-74
2022/12/03 01:38:47;;;;;;;10.60;7.00;;;4.60;99.90;;;;;;5066886;28;20044;-74
2022/12/03 01:41:15;;;;;;;11.20;7.90;;;4.60;99.90;;;;;;5067386;28;20044;-73
2022/12/03 01:43:40;;;;;;;11.02;7.75;;;4.60;99.90;;;;;;5052488;28;20119;-74
2022/12/03 01:46:07;;;;;;;12.10;8.05;;;4.60;99.90;;;;;;5067856;28;20143;-73
2022/12/03 01:48:36;;;;;;;10.75;7.20;;;4.60;99.90;;;;;;5067398;28;20056;-73
2022/12/03 01:51:01;;;;;;;9.07;6.60;;;4.60;99.90;;;;;;5068430;28;20574;-73
2022/12/03 01:53:27;;;;;;;9.93;6.93;;;4.50;99.90;;;;;;5064099;28;20131;-73
2022/12/03 01:55:53;;;;;;;11.07;6.80;;;4.60;99.90;;;;;;5057946;28;20049;-73
2022/12/03 01:58:24;;;;;;;12.38;7.97;;;4.50;99.90;;;;;;5069270;28;20119;-73
2022/12/03 02:00:50;;;;;;;12.35;7.85;;;4.50;99.90;;;;;;5064404;28;20128;-73
2022/12/03 02:03:24;;;;;;;12.45;8.07;;;4.50;99.90;;;;;;5077952;28;20555;-73
2022/12/03 02:05:50;;;;;;;9.45;6.95;;;4.50;99.90;;;;;;5076771;28;21218;-73
2022/12/03 02:08:26;;;;;;;9.75;6.20;;;4.50;99.90;;;;;;5056908;28;20044;-73
2022/12/03 02:10:52;;;;;;;9.15;5.65;;;4.50;99.90;;;;;;5047194;28;20048;-73
2022/12/03 02:13:18;;;;;;;9.43;6.35;;;4.40;99.90;;;;;;5063221;28;20040;-74
2022/12/03 02:15:45;;;;;;;9.38;6.38;;;4.50;99.90;;;;;;5031830;28;20055;-73
2022/12/03 02:18:11;;;;;;;10.15;6.93;;;4.40;99.90;;;;;;5053490;28;20037;-73
2022/12/03 02:21:03;;;;;;;8.75;5.90;;;4.40;99.90;;;;;;5057279;28;20105;-78
2022/12/03 02:23:40;;;;;;;8.60;5.93;;;4.40;99.90;;;;;;5065727;28;20044;-77
2022/12/03 02:26:06;;;;;;;8.95;5.82;;;4.40;99.90;;;;;;5061291;28;20545;-77
2022/12/03 02:28:32;;;;;;;13.32;8.27;;;4.40;99.90;;;;;;5052572;28;20109;-77
2022/12/03 02:30:58;;;;;;;10.82;7.70;;;4.40;99.90;;;;;;5083371;28;20051;-77
2022/12/03 02:33:23;;;;;;;15.02;9.43;;;4.40;99.90;;;;;;5052543;28;20132;-73
2022/12/03 02:35:49;;;;;;;12.90;8.85;;;4.40;99.90;;;;;;5059008;28;20511;-73
2022/12/03 02:38:17;;;;;;;12.60;8.63;;;4.40;99.90;;;;;;5072062;28;20044;-74
2022/12/03 02:40:44;;;;;;;14.18;8.40;;;4.40;99.90;;;;;;5065668;28;20340;-74
2022/12/03 02:43:13;;;;;;;12.30;8.15;;;4.40;99.90;;;;;;5052790;28;20526;-74
2022/12/03 02:45:42;;;;;;;12.93;8.95;;;4.40;99.90;;;;;;5054297;28;20037;-74
2022/12/03 02:48:13;;;;;;;11.95;8.13;;;4.40;99.90;;;;;;5066516;28;20045;-74
2022/12/03 02:50:53;;;;;;;12.55;8.05;;;4.30;99.90;;;;;;5053539;28;20047;-72
2022/12/03 02:53:34;;;;;;;11.90;7.95;;;4.40;99.90;;;;;;5072106;28;20137;-74
2022/12/03 02:56:02;;;;;;;11.63;7.35;;;4.30;99.90;;;;;;5056840;28;20049;-73
2022/12/03 02:58:30;;;;;;;15.60;9.82;;;4.30;99.90;;;;;;5060363;28;20044;-73
2022/12/03 03:00:57;;;;;;;15.27;10.07;;;4.30;99.90;;;;;;5060447;28;20044;-73
2022/12/03 03:03:25;;;;;;;15.15;9.80;;;4.30;99.90;;;;;;5068995;28;20401;-73
2022/12/03 03:05:51;;;;;;;14.93;9.95;;;4.30;99.90;;;;;;5035288;28;20563;-73
2022/12/03 03:08:18;;;;;;;14.40;9.90;;;4.30;99.90;;;;;;5036070;28;20045;-74
2022/12/03 03:10:45;;;;;;;14.15;9.13;;;4.30;99.90;;;;;;5058768;28;20231;-71
2022/12/03 03:13:12;;;;;;;11.70;8.07;;;4.20;99.90;;;;;;5071772;28;20057;-71
2022/12/03 03:15:40;;;;;;;14.55;9.52;;;4.20;99.90;;;;;;5071233;28;20040;-70
2022/12/03 03:18:10;;;;;;;12.80;8.52;;;4.20;99.90;;;;;;5061805;28;20041;-70
2022/12/03 03:20:36;;;;;;;12.88;8.55;;;4.20;99.90;;;;;;5034920;28;20037;-70
2022/12/03 03:23:13;;;;;;;12.98;8.60;;;4.20;99.90;;;;;;5057762;28;20203;-70
2022/12/03 03:25:42;;;;;;;14.40;9.65;;;4.10;99.90;;;;;;5065886;28;20044;-71
2022/12/03 03:28:08;;;;;;;14.77;9.30;;;4.10;99.90;;;;;;5067492;28;20055;-72
2022/12/03 03:30:35;;;;;;;13.35;8.48;;;4.10;99.90;;;;;;5057814;28;20529;-70
2022/12/03 03:33:01;;;;;;;14.18;9.35;;;4.00;99.90;;;;;;5054067;28;20060;-70
2022/12/03 03:35:27;;;;;;;16.92;10.88;;;4.00;99.90;;;;;;5071184;28;20545;-70
2022/12/03 03:37:53;;;;;;;16.25;10.13;;;4.00;99.90;;;;;;5064957;28;20040;-70
2022/12/03 03:40:20;;;;;;;18.25;10.63;;;4.00;99.90;;;;;;5068722;28;20041;-71
2022/12/03 03:42:47;;;;;;;14.95;9.77;;;4.00;99.90;;;;;;5065554;28;20134;-71
2022/12/03 03:45:13;;;;;;;14.48;9.55;;;4.00;99.90;;;;;;5053406;28;20404;-71
2022/12/03 03:47:39;;;;;;;;;;;4.00;99.90;;;;;;5038262;28;20139;-70
2022/12/03 03:50:07;;;;;;;15.40;9.55;;;4.00;99.90;;;;;;5066508;28;19978;-71
2022/12/03 03:52:33;;;;;;;13.52;8.52;;;4.00;99.90;;;;;;5062792;28;20492;-71
2022/12/03 03:54:59;;;;;;;16.02;10.30;;;4.00;99.90;;;;;;5069655;28;20053;-71
2022/12/03 03:57:25;;;;;;;15.38;10.40;;;4.00;99.90;;;;;;5070981;28;20040;-71
2022/12/03 03:59:51;;;;;;;14.73;9.55;;;4.00;99.90;;;;;;5040184;28;20362;-71
2022/12/03 04:02:23;;;;;;;14.82;8.82;;;3.90;99.90;;;;;;5049443;28;20040;-71
2022/12/03 04:04:50;;;;;;;14.65;8.73;;;3.90;99.90;;;;;;5054168;28;20051;-72
2022/12/03 04:07:16;;;;;;;12.35;8.50;;;3.90;99.90;;;;;;5058141;28;20116;-71
2022/12/03 04:09:42;;;;;;;13.55;9.05;;;3.90;99.90;;;;;;5080309;28;20509;-71
2022/12/03 04:14:54;;;;;;;15.80;10.40;;;3.90;99.90;;;;;;5070326;28;20564;-72
2022/12/03 04:17:20;;;;;;;17.08;10.38;;;3.90;99.90;;;;;;5066530;28;20119;-72
2022/12/03 04:19:46;;;;;;;16.87;11.17;;;3.90;99.90;;;;;;5061238;28;20056;-72
2022/12/03 04:22:53;;;;;;;16.73;10.10;;;3.80;99.90;;;;;;5050897;28;20299;-71
2022/12/03 04:30:29;;;;;;;15.93;10.30;;;3.80;99.90;;;;;;5059555;28;20111;-71
2022/12/03 04:35:41;;;;;;;13.88;8.80;;;3.80;99.90;;;;;;5060917;28;20052;-71
2022/12/03 04:38:07;;;;;;;14.57;9.50;;;3.80;99.90;;;;;;5068303;28;20064;-71
2022/12/03 04:43:17;;;;;;;16.33;10.45;;;3.80;99.90;;;;;;5035772;28;20044;-72
2022/12/03 04:45:43;;;;;;;16.17;10.00;;;3.80;99.90;;;;;;5055097;28;20408;-71
2022/12/03 04:48:09;;;;;;;15.65;10.25;;;3.80;99.90;;;;;;5050336;28;20750;-72
2022/12/03 04:50:34;;;;;;;16.73;9.75;;;3.80;99.90;;;;;;5061587;28;20044;-72
2022/12/03 04:53:00;;;;;;;17.42;10.98;;;3.80;99.90;;;;;;5039546;28;20053;-71
2022/12/03 04:55:25;;;;;;;17.38;10.90;;;3.80;99.90;;;;;;5032748;28;20037;-71
2022/12/03 04:57:51;;;;;;;17.00;9.75;;;3.70;99.90;;;;;;5049365;28;20120;-71
2022/12/03 05:00:17;;;;;;;14.13;9.02;;;3.70;99.90;;;;;;5061434;28;20045;-72
2022/12/03 05:02:43;;;;;;;15.80;9.90;;;3.70;99.90;;;;;;5065091;28;20083;-72
2022/12/03 05:05:09;;;;;;;14.50;9.80;;;3.70;99.90;;;;;;5062991;28;20037;-72
2022/12/03 05:07:35;;;;;;;16.42;10.38;;;3.70;99.90;;;;;;5045002;28;20050;-72
2022/12/03 05:10:01;;;;;;;14.15;9.52;;;3.70;99.90;;;;;;5042677;28;20040;-77
2022/12/03 05:12:27;;;;;;;15.20;9.25;;;3.70;99.90;;;;;;5034868;28;20682;-77
2022/12/03 05:14:52;;;;;;;15.20;9.82;;;3.70;99.90;;;;;;5034326;28;20081;-77
2022/12/03 05:17:18;;;;;;;15.43;9.98;;;3.70;99.90;;;;;;5051151;28;20082;-77
2022/12/03 05:22:28;;;;;;;13.80;9.35;;;3.70;99.90;;;;;;5060261;28;20346;-78
2022/12/03 05:24:54;;;;;;;16.97;10.40;;;3.70;99.90;;;;;;5032399;28;20068;-77
2022/12/03 05:27:20;;;;;;;15.33;9.97;;;3.70;99.90;;;;;;5045487;28;20299;-77
2022/12/03 05:29:46;;;;;;;;;;;3.60;99.90;;;;;;5063434;28;20370;-77
2022/12/03 05:32:12;;;;;;;16.80;10.63;;;3.60;99.90;;;;;;5066646;28;19920;-75
2022/12/03 05:34:37;;;;;;;14.80;9.73;;;3.60;99.90;;;;;;5064583;28;20052;-75
2022/12/03 05:37:03;;;;;;;13.60;8.82;;;3.60;99.90;;;;;;5068294;28;20039;-75
2022/12/03 05:39:29;;;;;;;13.60;8.05;;;3.60;99.90;;;;;;5065624;28;20109;-76
2022/12/03 05:44:41;;;;;;;14.73;9.23;;;3.60;99.90;;;;;;5050723;28;20045;-76
2022/12/03 05:47:06;;;;;;;13.50;8.55;;;3.60;99.90;;;;;;5050674;28;20053;-77
2022/12/03 05:49:32;;;;;;;16.27;9.75;;;3.50;99.90;;;;;;5032523;28;20068;-76
2022/12/03 05:51:58;;;;;;;16.83;10.38;;;3.50;99.90;;;;;;5050362;28;20049;-77
2022/12/03 05:54:23;;;;;;;14.48;9.40;;;3.60;99.90;;;;;;5050748;28;20076;-76
2022/12/03 05:56:49;;;;;;;16.30;9.02;;;3.60;99.90;;;;;;5050318;28;20103;-76
2022/12/03 05:59:15;;;;;;;15.85;10.10;;;3.50;99.90;;;;;;5048170;28;20033;-76
2022/12/03 06:01:40;;;;;;;16.83;10.17;;;3.60;99.90;;;;;;5051745;28;20056;-76
2022/12/03 06:04:06;;;;;;;16.85;10.35;;;3.60;99.90;;;;;;5061456;28;20303;-76
2022/12/03 06:06:31;;;;;;;14.93;9.95;;;3.60;99.90;;;;;;5055130;28;20415;-77
2022/12/03 06:08:57;;;;;;;14.00;9.18;;;3.60;99.90;;;;;;5065858;28;20428;-76
2022/12/03 06:11:23;;;;;;;14.35;8.63;;;3.60;99.90;;;;;;5051994;28;20446;-76
2022/12/03 06:13:49;;;;;;;14.45;9.02;;;3.60;99.90;;;;;;5079500;28;20045;-77
2022/12/03 06:16:14;;;;;;;15.47;9.47;;;3.60;99.90;;;;;;5080206;28;20052;-75
2022/12/03 06:18:40;;;;;;;16.83;9.77;;;3.60;99.90;;;;;;5046408;28;20307;-75
2022/12/03 06:21:06;;;;;;;15.30;9.07;;;3.60;99.90;;;;;;5032548;28;20045;-75
2022/12/03 06:23:31;;;;;;;16.53;10.03;;;3.60;99.90;;;;;;5062434;28;20607;-75
2022/12/03 06:25:57;;;;;;;15.27;9.23;;;3.60;99.90;;;;;;5048260;28;20871;-75
2022/12/03 06:28:22;;;;;;;18.98;10.98;;;3.60;99.90;;;;;;5061086;28;20325;-75
2022/12/03 06:30:48;;;;;;;16.90;10.80;;;3.60;99.90;;;;;;5054960;28;20060;-76
2022/12/03 06:33:14;;;;;;;17.35;11.07;;;3.60;99.90;;;;;;5050242;28;20293;-71
2022/12/03 06:35:39;;;;;;;16.17;10.15;;;3.60;99.90;;;;;;5060460;28;20079;-71
2022/12/03 06:38:05;;;;;;;13.95;9.02;;;3.50;99.90;;;;;;5022798;28;20056;-72
2022/12/03 06:40:31;;;;;;;18.42;10.98;;;3.50;99.90;;;;;;5047938;28;20469;-71
2022/12/03 06:42:56;;;;;;;19.48;10.90;;;3.50;99.90;;;;;;5065835;28;20042;-71
2022/12/03 06:45:22;;;;;;;17.08;10.05;;;3.50;99.90;;;;;;5036946;28;20045;-71
2022/12/03 06:47:48;;;;;;;15.07;9.60;;;3.50;99.90;;;;;;5032599;28;20115;-74
2022/12/03 06:50:13;;;;;;;18.38;10.43;;;3.50;99.90;;;;;;5048344;28;20106;-71
2022/12/03 06:52:39;;;;;;;17.48;10.20;;;3.50;99.90;;;;;;5053190;28;20491;-72
2022/12/03 06:55:06;;;;;;;16.45;10.10;;;3.50;99.90;;;;;;5050036;28;20052;-72
2022/12/03 06:57:31;;;;;;;17.70;10.30;;;3.50;99.90;;;;;;5052126;28;20052;-72
2022/12/03 06:59:57;;;;;;;17.48;10.30;;;3.50;99.90;;;;;;5064184;28;20356;-71
2022/12/03 07:02:23;;;;;;;16.80;10.70;;;3.50;99.90;;;;;;5054342;28;20040;-72
2022/12/03 07:04:49;;;;;;;17.55;10.30;;;3.50;99.90;;;;;;5015174;28;20468;-72
2022/12/03 07:07:14;;;;;;;18.10;10.93;;;3.50;99.90;;;;;;5036793;28;20122;-72
2022/12/03 07:09:40;;;;;;;15.65;9.88;;;3.50;99.90;;;;;;5071270;28;20044;-72
2022/12/03 07:12:06;;;;;;;15.02;8.98;;;3.40;99.90;;;;;;5053603;28;20440;-72
2022/12/03 07:14:31;;;;;;;15.07;9.13;;;3.40;99.90;;;;;;5035063;28;20056;-72
2022/12/03 07:16:57;;;;;;;17.10;10.90;;;3.40;99.90;;;;;;5054872;28;20043;-71
2022/12/03 07:19:23;;;;;;;16.05;9.80;;;3.40;99.90;;;;;;5051721;28;20045;-72
2022/12/03 07:21:48;;;;;;;15.50;9.43;;;3.40;99.90;;;;;;5035222;28;20140;-72
2022/12/03 07:24:14;;;;;;;15.20;8.82;;;3.40;99.90;;;;;;5051393;28;20044;-73
2022/12/03 07:26:40;;;;;;;15.95;9.77;;;3.30;99.90;;;;;;5037440;28;20044;-72
2022/12/03 07:29:05;;;;;;;18.00;10.73;;;3.40;99.90;;;;;;5066470;28;20074;-71
2022/12/03 07:31:31;;;;;;;15.75;9.80;;;3.30;99.90;;;;;;5061688;28;20488;-71
2022/12/03 07:33:57;;;;;;;15.70;9.93;;;3.40;99.90;;;;;;5051485;28;20451;-71
2022/12/03 07:36:23;;;;;;;14.95;9.13;;;3.40;99.90;;;;;;5055749;28;20124;-70
2022/12/03 07:38:48;;;;;;;14.63;8.80;;;3.30;99.90;;;;;;5067423;28;20041;-70
2022/12/03 07:41:14;;;;;;;19.13;11.07;;;3.30;99.90;;;;;;5038705;28;20472;-71
2022/12/03 07:43:58;;;;;;;16.48;10.00;;;3.30;99.90;;;;;;5008239;28;20041;-70
2022/12/03 07:46:23;;;;;;;15.55;9.82;;;3.30;99.90;;;;;;5068314;28;20071;-71
2022/12/03 07:48:49;;;;;;;15.30;8.30;;;3.30;99.90;;;;;;5056153;28;20052;-71
2022/12/03 07:51:15;;;;;;;16.58;10.25;;;3.30;99.90;;;;;;5042231;28;20059;-71
2022/12/03 07:53:40;;;;;;;21.13;12.00;;;3.30;99.90;;;;;;5056747;28;20040;-71
2022/12/03 07:56:06;;;;;;;22.58;12.45;;;3.30;99.90;;;;;;5041867;28;20076;-71
2022/12/03 07:58:32;;;;;;;14.48;8.60;;;3.30;99.90;;;;;;5043424;28;20048;-71
2022/12/03 08:00:58;;;;;;;24.25;13.05;;;3.30;99.90;;;;;;5058175;28;20041;-71
2022/12/03 08:03:23;;;;;;;22.23;12.80;;;3.30;99.90;;;;;;5060610;28;20041;-71
2022/12/03 08:05:49;;;;;;;17.85;10.65;;;3.30;99.90;;;;;;5058996;28;20104;-71
2022/12/03 08:08:15;;;;;;;17.92;10.63;;;3.20;99.90;;;;;;5058060;28;20190;-72
2022/12/03 08:10:40;;;;;;;16.77;10.40;;;3.20;99.90;;;;;;5061275;28;20120;-72
2022/12/03 08:13:12;;;;;;;19.05;10.65;;;3.20;99.90;;;;;;5060214;28;20291;-72
2022/12/03 08:15:38;;;;;;;18.88;10.85;;;3.20;99.90;;;;;;5057543;28;20044;-72
2022/12/03 08:18:12;;;;;;;16.42;10.10;;;3.20;99.90;;;;;;5060725;28;20393;-76
2022/12/03 08:20:40;;;;;;;21.15;10.80;;;3.20;99.90;;;;;;5058969;28;20048;-76
2022/12/03 08:23:12;;;;;;;17.08;9.48;;;3.20;99.90;;;;;;5070208;28;20045;-77
2022/12/03 08:25:38;;;;;;;15.95;9.95;;;3.10;99.90;;;;;;5055501;28;20047;-76
2022/12/03 08:28:19;;;;;;;18.70;9.95;;;3.20;99.90;;;;;;5062562;28;20066;-76
2022/12/03 08:31:19;;;;;;;17.52;10.43;;;3.10;99.90;;;;;;5071637;28;20432;-76
2022/12/03 08:33:51;;;;;;;16.98;10.23;;;3.10;99.90;;;;;;5056735;28;20048;-77
2022/12/03 08:36:29;;;;;;;17.33;9.70;;;3.10;99.90;;;;;;5062458;28;20032;-76
2022/12/03 08:39:00;;;;;;;18.77;10.95;;;3.10;99.90;;;;;;5062950;28;20037;-75
2022/12/03 08:44:28;;;;;;;19.85;10.98;;;3.10;99.90;;;;;;5049079;28;20461;-76
2022/12/03 08:47:18;;;;;;;18.13;10.65;;;3.10;99.90;;;;;;5058952;28;20083;-76
2022/12/03 08:49:58;;;;;;;18.70;10.82;;;3.10;99.90;;;;;;5060216;28;20043;-76
2022/12/03 08:52:32;;;;;;;19.45;10.73;;;3.10;99.90;;;;;;5058970;28;20048;-76
2022/12/03 08:54:58;;;;;;;18.45;10.57;;;3.10;99.90;;;;;;5057165;28;20048;-76
2022/12/03 08:57:28;;;;;;;18.40;11.07;;;3.10;99.90;;;;;;5058018;28;20041;-75
2022/12/03 09:00:12;;;;;;;19.20;10.98;;;3.10;99.90;;;;;;5058264;28;20125;-75
2022/12/03 09:02:44;;;;;;;22.05;11.75;;;3.10;99.90;;;;;;5058533;28;20036;-76
2022/12/03 09:05:21;;;;;;;20.65;11.45;;;3.10;99.90;;;;;;5053018;28;20049;-75
2022/12/03 09:07:47;;;;;;;19.80;12.05;;;3.00;99.90;;;;;;5053464;28;20041;-75
2022/12/03 09:10:13;;;;;;;19.77;11.40;;;3.10;99.90;;;;;;5054655;28;20044;-74
2022/12/03 09:12:39;;;;;;;20.02;11.20;;;3.00;99.90;;;;;;5061072;28;20139;-76
2022/12/03 09:15:05;;;;;;;16.30;9.40;;;3.00;99.90;;;;;;5057726;28;20110;-75
2022/12/03 09:17:31;;;;;;;22.67;12.20;;;3.00;99.90;;;;;;5047701;28;20041;-74
2022/12/03 09:19:56;;;;;;;20.08;11.30;;;3.00;99.90;;;;;;5059759;28;20039;-74
2022/12/03 09:22:22;;;;;;;22.13;11.43;;;3.00;99.90;;;;;;5044058;28;20064;-74
2022/12/03 09:24:48;;;;;;;22.35;12.15;;;3.00;99.90;;;;;;5042915;28;20052;-75
2022/12/03 09:27:13;;;;;;;21.67;11.75;;;3.00;99.90;;;;;;5042756;28;20044;-76
2022/12/03 09:29:39;;;;;;;21.50;13.45;;;3.00;99.90;;;;;;5059850;28;20075;-76
2022/12/03 09:32:05;;;;;;;23.63;13.13;;;3.00;99.90;;;;;;5043748;28;20048;-76
2022/12/03 09:34:30;;;;;;;23.58;13.23;;;3.00;99.90;;;;;;5057199;28;20479;-76
2022/12/03 09:36:56;;;;;;;23.48;12.90;;;2.90;99.90;;;;;;5055112;28;20045;-75
2022/12/03 09:39:22;;;;;;;24.43;13.70;;;2.90;99.90;;;;;;5052823;28;20127;-75
2022/12/03 09:41:48;;;;;;;22.53;13.50;;;2.80;99.90;;;;;;5058945;28;20322;-75
2022/12/03 09:44:14;;;;;;;24.48;14.02;;;2.80;99.90;;;;;;5038135;28;20295;-76
2022/12/03 09:46:42;;;;;;;24.25;13.52;;;2.90;99.90;;;;;;5058059;28;20046;-70
2022/12/03 09:49:10;;;;;;;22.25;13.13;;;2.90;99.90;;;;;;5055607;28;20057;-71
2022/12/03 09:51:36;;;;;;;21.23;12.43;;;2.80;99.90;;;;;;5054208;28;20048;-71
2022/12/03 09:54:04;;;;;;;24.63;13.40;;;2.90;99.90;;;;;;5055446;28;20407;-71
2022/12/03 09:56:30;;;;;;;24.25;12.77;;;2.90;99.90;;;;;;5062210;28;20091;-71
2022/12/03 09:58:55;;;;;;;24.63;13.38;;;2.90;99.90;;;;;;5069377;28;20068;-71
2022/12/03 10:01:21;;;;;;;21.23;11.38;;;2.90;99.90;;;;;;5056673;28;20051;-71
2022/12/03 10:03:49;;;;;;;19.90;11.35;;;3.00;99.90;;;;;;5037668;28;20029;-71
2022/12/03 10:06:20;;;;;;;24.35;13.63;;;2.90;99.90;;;;;;5056830;28;20083;-74
2022/12/03 10:08:48;;;;;;;23.15;12.73;;;2.90;99.90;;;;;;5037611;28;20141;-75
2022/12/03 10:11:16;;;;;;;25.45;13.38;;;2.90;99.90;;;;;;5060612;28;20053;-76
2022/12/03 10:13:42;;;;;;;25.30;13.65;;;2.90;99.90;;;;;;5054331;28;20512;-75
2022/12/03 10:16:10;;;;;;;;;;;3.00;99.90;;;;;;5059560;28;20037;-76
2022/12/03 10:18:35;;;;;;;22.27;12.65;;;2.90;99.90;;;;;;5070398;28;20390;-74
2022/12/03 10:21:01;;;;;;;23.67;12.77;;;2.90;99.90;;;;;;5044952;28;20041;-75
2022/12/03 10:23:29;;;;;;;21.10;12.32;;;2.90;99.90;;;;;;5061711;28;20051;-75
2022/12/03 10:25:57;;;;;;;25.88;13.93;;;2.90;99.90;;;;;;5046062;28;20085;-75
2022/12/03 10:28:35;;;;;;;24.48;14.18;;;2.90;99.90;;;;;;5060036;28;20207;-76
2022/12/03 10:31:04;;;;;;;24.30;13.98;;;2.90;99.90;;;;;;5060706;28;20036;-75
2022/12/03 10:33:36;;;;;;;21.38;12.30;;;2.90;99.90;;;;;;5072831;28;20093;-75
2022/12/03 10:36:16;;;;;;;23.13;12.20;;;2.90;99.90;;;;;;5061256;28;20032;-75
2022/12/03 10:38:42;;;;;;;21.45;12.65;;;2.90;99.90;;;;;;5062967;28;20041;-75
2022/12/03 10:41:34;;;;;;;20.83;12.38;;;2.90;99.90;;;;;;5048451;28;20032;-75
2022/12/03 10:44:21;;;;;;;23.35;12.82;;;2.90;99.90;;;;;;5056130;28;20135;-75
2022/12/03 10:47:13;;;;;;;19.38;11.80;;;2.90;99.90;;;;;;5062318;28;20083;-77
2022/12/03 10:49:40;;;;;;;23.05;11.48;;;3.00;99.90;;;;;;5053127;28;20136;-77
2022/12/03 10:52:21;;;;;;;23.50;13.20;;;3.00;99.90;;;;;;5040966;28;20045;-76
2022/12/03 10:54:48;;;;;;;27.08;14.18;;;3.00;99.90;;;;;;5061834;28;20068;-76
2022/12/03 10:57:14;;;;;;;21.98;12.40;;;3.00;99.90;;;;;;5062327;28;20075;-76
2022/12/03 10:59:41;;;;;;;22.40;12.32;;;2.90;99.90;;;;;;5059632;28;20037;-75
2022/12/03 11:02:22;;;;;;;23.02;12.65;;;3.00;99.90;;;;;;5056331;28;20036;-75
2022/12/03 11:04:49;;;;;;;21.33;12.57;;;3.00;99.90;;;;;;5059224;28;20069;-75
2022/12/03 11:07:18;;;;;;;21.40;12.30;;;3.00;99.90;;;;;;5041143;28;20124;-72
2022/12/03 11:09:46;;;;;;;20.95;11.07;;;3.00;99.90;;;;;;5059839;28;20041;-71
2022/12/03 11:12:24;;;;;;;18.55;10.65;;;3.00;99.90;;;;;;5058243;28;20079;-72
2022/12/03 11:14:49;;;;;;;23.20;12.80;;;3.10;99.90;;;;;;5061282;28;20097;-72
2022/12/03 11:17:43;;;;;;;22.35;12.55;;;3.00;99.90;;;;;;5043949;28;20048;-72
2022/12/03 11:20:34;;;;;;;22.83;13.27;;;3.00;99.90;;;;;;5053213;28;20044;-72
2022/12/03 11:23:00;;;;;;;22.25;12.90;;;3.00;99.90;;;;;;5053573;28;20214;-72
2022/12/03 11:25:26;;;;;;;23.00;12.27;;;3.00;99.90;;;;;;5052835;28;20120;-71
2022/12/03 11:28:10;;;;;;;22.08;12.88;;;3.00;99.90;;;;;;5056779;28;20567;-72
2022/12/03 11:30:59;;;;;;;22.38;13.07;;;3.00;99.90;;;;;;5038151;28;20044;-73
2022/12/03 11:33:34;;;;;;;23.20;12.60;;;3.00;99.90;;;;;;5044505;28;20052;-71
2022/12/03 11:36:03;;;;;;;23.27;13.57;;;3.00;99.90;;;;;;5056525;28;20485;-71
2022/12/03 11:38:54;;;;;;;26.75;16.13;;;3.00;99.90;;;;;;5039771;28;20040;-73
2022/12/03 11:41:20;;;;;;;24.83;14.18;;;3.00;99.90;;;;;;5052482;28;20047;-72
2022/12/03 11:43:51;;;;;;;21.10;13.07;;;3.00;99.90;;;;;;5034936;28;20044;-73
2022/12/03 11:46:37;;;;;;;21.00;13.02;;;3.00;99.90;;;;;;5056863;28;20303;-73
2022/12/03 11:49:27;;;;;;;22.25;12.95;;;3.00;99.90;;;;;;5040582;28;20198;-72
2022/12/03 11:51:53;;;;;;;25.73;14.50;;;3.00;99.90;;;;;;5048997;28;20071;-75
2022/12/03 11:54:22;;;;;;;26.27;14.85;;;3.00;99.90;;;;;;5056586;28;20182;-75
2022/12/03 11:56:49;;;;;;;46.58;26.15;;;3.10;99.90;;;;;;5061630;28;20048;-75
2022/12/03 11:59:16;;;;;;;49.63;29.88;;;3.10;99.90;;;;;;5038020;28;20041;-71
2022/12/03 12:01:42;;;;;;;44.13;26.42;;;3.10;99.90;;;;;;5056539;28;20115;-71
2022/12/03 12:04:28;;;;;;;30.88;18.08;;;3.00;99.90;;;;;;5059115;28;20072;-72
2022/12/03 12:06:54;;;;;;;28.23;16.58;;;2.90;99.90;;;;;;5061539;28;20041;-72
2022/12/03 12:09:51;;;;;;;47.58;26.45;;;3.00;99.90;;;;;;5056907;28;20044;-71
2022/12/03 12:12:29;;;;;;;35.95;20.50;;;2.90;99.90;;;;;;5052139;28;20072;-72
2022/12/03 12:14:56;;;;;;;32.88;18.42;;;3.00;99.90;;;;;;5060149;28;20064;-72
2022/12/03 12:17:33;;;;;;;32.13;17.58;;;3.00;99.90;;;;;;5050845;28;20040;-71
2022/12/03 12:20:23;;;;;;;28.45;16.00;;;3.00;99.90;;;;;;5060053;28;20442;-71
2022/12/03 12:22:49;;;;;;;27.75;16.17;;;2.90;99.90;;;;;;5040619;28;20196;-70
2022/12/03 12:25:39;;;;;;;40.10;20.92;;;2.90;99.90;;;;;;5061129;28;20037;-71
2022/12/03 12:28:05;;;;;;;30.85;17.20;;;2.90;99.90;;;;;;5058812;28;20041;-72
2022/12/03 12:30:30;;;;;;;32.13;17.52;;;2.90;99.90;;;;;;5062525;28;20051;-72
2022/12/03 12:33:21;;;;;;;24.33;14.20;;;2.90;99.90;;;;;;5062127;28;20045;-74
2022/12/03 12:35:47;;;;;;;25.95;14.77;;;2.90;99.90;;;;;;5069202;28;20589;-74
2022/12/03 12:38:18;;;;;;;25.70;14.00;;;2.90;99.90;;;;;;5071222;28;20086;-74
2022/12/03 12:40:48;;;;;;;24.60;14.00;;;2.90;99.90;;;;;;5074794;28;20044;-74
2022/12/03 12:43:16;;;;;;;23.20;13.57;;;2.90;99.90;;;;;;5071375;28;20048;-74
2022/12/03 12:45:43;;;;;;;25.77;15.68;;;2.90;99.90;;;;;;5068878;28;20044;-72
2022/12/03 12:48:29;;;;;;;27.52;16.23;;;2.90;99.90;;;;;;5046541;28;20053;-71
2022/12/03 12:51:10;;;;;;;23.48;14.00;;;2.80;99.90;;;;;;5059377;28;20037;-71
2022/12/03 12:53:37;;;;;;;21.40;12.77;;;2.90;99.90;;;;;;5060006;28;20318;-71
2022/12/03 12:56:25;;;;;;;20.20;13.10;;;2.90;99.90;;;;;;5060324;28;20048;-71
2022/12/03 12:58:52;;;;;;;21.70;13.63;;;2.80;99.90;;;;;;5058878;28;20460;-72
2022/12/03 13:01:25;;;;;;;22.77;12.88;;;2.80;99.90;;;;;;5055147;28;20029;-71
2022/12/03 13:03:51;;;;;;;19.85;12.05;;;2.80;99.90;;;;;;5057140;28;20421;-70
2022/12/03 13:06:20;;;;;;;20.42;12.00;;;2.80;99.90;;;;;;5057794;28;20048;-73
2022/12/03 13:08:48;;;;;;;23.20;13.77;;;2.80;99.90;;;;;;5065318;28;20032;-78
2022/12/03 13:11:29;;;;;;;21.80;13.27;;;2.80;99.90;;;;;;5051144;28;20045;-71
2022/12/03 13:13:54;;;;;;;24.42;14.13;;;2.80;99.90;;;;;;5069202;28;20098;-71
2022/12/03 13:16:34;;;;;;;19.00;11.10;;;2.80;99.90;;;;;;5035636;28;20080;-72